createdAt,value
2022-12-02T00:00:58.490Z,10.60
2022-12-02T00:03:00.340Z,10.60
2022-12-02T00:05:04.562Z,10.60
2022-12-02T00:07:06.528Z,10.60
2022-12-02T00:09:26.829Z,10.60
2022-12-02T00:11:32.099Z,10.60
2022-12-02T00:13:41.728Z,10.60
2022-12-02T00:15:44.725Z,10.60
2022-12-02T00:17:46.376Z,10.60
2022-12-02T00:19:48.291Z,10.60
2022-12-02T00:21:51.078Z,10.60
2022-12-02T00:23:52.670Z,10.60
2022-12-02T00:25:54.537Z,10.60
2022-12-02T00:27:56.281Z,10.60
2022-12-02T00:29:57.932Z,10.60
2022-12-02T00:31:59.685Z,10.60
2022-12-02T00:34:01.598Z,10.60
2022-12-02T00:36:03.412Z,10.60
2022-12-02T00:38:05.439Z,10.60
2022-12-02T00:40:07.338Z,10.60
2022-12-02T00:42:09.017Z,10.60
2022-12-02T00:44:29.429Z,10.60
2022-12-02T00:46:35.118Z,10.60
2022-12-02T00:48:37.221Z,10.60
2022-12-02T00:50:38.823Z,10.60
2022-12-02T00:52:40.581Z,10.60
2022-12-02T00:54:42.259Z,10.60
2022-12-02T00:56:43.944Z,10.60
2022-12-02T00:58:45.877Z,10.50
2022-12-02T01:00:47.717Z,10.60
2022-12-02T01:02:49.702Z,10.60
2022-12-02T01:04:51.745Z,10.50
2022-12-02T01:06:53.498Z,10.50
2022-12-02T01:08:55.168Z,10.60
2022-12-02T01:10:57.301Z,10.60
2022-12-02T01:12:58.952Z,10.50
2022-12-02T01:15:00.592Z,10.50
2022-12-02T01:17:02.269Z,10.50
2022-12-02T01:19:03.937Z,10.50
2022-12-02T01:21:05.898Z,10.50
2022-12-02T01:23:07.519Z,10.50
2022-12-02T01:25:09.341Z,10.50
2022-12-02T01:27:11.024Z,10.50
2022-12-02T01:29:12.722Z,10.50
2022-12-02T01:31:15.176Z,10.50
2022-12-02T01:33:16.915Z,10.50
2022-12-02T01:35:18.698Z,10.50
2022-12-02T01:37:20.314Z,10.50
2022-12-02T01:39:23.728Z,10.50
2022-12-02T01:41:26.452Z,10.50
2022-12-02T01:43:28.300Z,10.50
2022-12-02T01:45:31.492Z,10.50
2022-12-02T01:47:33.877Z,10.50
2022-12-02T01:49:35.543Z,10.50
2022-12-02T01:51:37.251Z,10.50
2022-12-02T01:53:39.728Z,10.50
2022-12-02T01:55:41.877Z,10.50
2022-12-02T01:57:44.680Z,10.50
2022-12-02T01:59:46.454Z,10.50
2022-12-02T02:01:48.422Z,10.50
2022-12-02T02:03:50.150Z,10.50
2022-12-02T02:05:51.908Z,10.50
2022-12-02T02:07:54.810Z,10.50
2022-12-02T02:09:57.508Z,10.50
2022-12-02T02:11:59.237Z,10.50
2022-12-02T02:14:01.474Z,10.50
2022-12-02T02:16:03.372Z,10.50
2022-12-02T02:18:05.794Z,10.50
2022-12-02T02:20:10.384Z,10.50
2022-12-02T02:22:18.378Z,10.50
2022-12-02T02:24:20.070Z,10.50
2022-12-02T02:26:23.067Z,10.50
2022-12-02T02:28:24.937Z,10.50
2022-12-02T02:30:27.908Z,10.50
2022-12-02T02:32:29.696Z,10.50
2022-12-02T02:34:31.483Z,10.50
2022-12-02T02:36:33.810Z,10.50
2022-12-02T02:38:37.188Z,10.50
2022-12-02T02:40:40.387Z,10.50
2022-12-02T02:42:47.533Z,10.50
2022-12-02T02:44:49.707Z,10.50
2022-12-02T02:46:52.196Z,10.50
2022-12-02T02:48:53.825Z,10.50
2022-12-02T02:50:55.758Z,10.50
2022-12-02T02:52:58.313Z,10.50
2022-12-02T02:54:59.986Z,10.50
2022-12-02T02:57:02.627Z,10.50
2022-12-02T02:59:04.395Z,10.50
2022-12-02T03:01:12.090Z,10.50
2022-12-02T03:03:15.483Z,10.40
2022-12-02T03:05:17.499Z,10.50
2022-12-02T03:07:19.279Z,10.50
2022-12-02T03:09:22.674Z,10.50
2022-12-02T03:11:25.522Z,10.50
2022-12-02T03:13:27.976Z,10.50
2022-12-02T03:15:29.936Z,10.50
2022-12-02T03:17:31.744Z,10.50
2022-12-02T03:19:34.183Z,10.50
2022-12-02T03:21:35.944Z,10.50
2022-12-02T03:23:37.814Z,10.50
2022-12-02T03:25:39.472Z,10.50
2022-12-02T03:27:41.088Z,10.50
2022-12-02T03:29:43.208Z,10.50
2022-12-02T03:31:45.269Z,10.50
2022-12-02T03:33:47.258Z,10.50
2022-12-02T03:35:49.200Z,10.50
2022-12-02T03:37:50.999Z,10.50
2022-12-02T03:39:53.033Z,10.50
2022-12-02T03:41:54.785Z,10.50
2022-12-02T03:43:57.156Z,10.50
2022-12-02T03:45:59.503Z,10.50
2022-12-02T03:48:02.247Z,10.50
2022-12-02T03:50:04.356Z,10.50
2022-12-02T03:52:06.149Z,10.50
2022-12-02T03:54:07.944Z,10.50
2022-12-02T03:56:10.131Z,10.50
2022-12-02T03:58:11.810Z,10.50
2022-12-02T04:00:16.135Z,10.50
2022-12-02T04:02:18.152Z,10.50
2022-12-02T04:04:19.847Z,10.50
2022-12-02T04:06:21.606Z,10.50
2022-12-02T04:08:23.311Z,10.50
2022-12-02T04:10:24.984Z,10.50
2022-12-02T04:12:26.644Z,10.50
2022-12-02T04:14:28.319Z,10.50
2022-12-02T04:16:30.373Z,10.50
2022-12-02T04:18:32.104Z,10.50
2022-12-02T04:20:33.720Z,10.40
2022-12-02T04:22:35.354Z,10.50
2022-12-02T04:24:37.026Z,10.50
2022-12-02T04:26:43.415Z,10.40
2022-12-02T04:28:45.985Z,10.40
2022-12-02T04:30:47.704Z,10.40
2022-12-02T04:32:49.531Z,10.40
2022-12-02T04:34:51.456Z,10.50
2022-12-02T04:36:53.401Z,10.40
2022-12-02T04:38:55.077Z,10.40
2022-12-02T04:40:56.726Z,10.50
2022-12-02T04:42:58.411Z,10.50
2022-12-02T04:45:00.106Z,10.50
2022-12-02T04:47:01.857Z,10.50
2022-12-02T04:49:03.587Z,10.50
2022-12-02T04:51:05.294Z,10.50
2022-12-02T04:53:07.661Z,10.50
2022-12-02T04:55:09.492Z,10.50
2022-12-02T04:57:11.186Z,10.50
2022-12-02T04:59:12.815Z,10.50
2022-12-02T05:01:14.601Z,10.50
2022-12-02T05:03:16.310Z,10.50
2022-12-02T05:05:18.002Z,10.50
2022-12-02T05:07:19.651Z,10.50
2022-12-02T05:09:24.367Z,10.50
2022-12-02T05:11:26.023Z,10.50
2022-12-02T05:13:27.646Z,10.50
2022-12-02T05:15:29.298Z,10.50
2022-12-02T05:17:30.978Z,10.50
2022-12-02T05:19:33.521Z,10.50
2022-12-02T05:21:35.213Z,10.50
2022-12-02T05:23:36.829Z,10.50
2022-12-02T05:25:38.446Z,10.50
2022-12-02T05:27:40.114Z,10.50
2022-12-02T05:29:41.798Z,10.50
2022-12-02T05:31:43.526Z,10.50
2022-12-02T05:33:45.281Z,10.50
2022-12-02T05:35:47.013Z,10.50
2022-12-02T05:37:48.671Z,10.50
2022-12-02T05:39:50.590Z,10.50
2022-12-02T05:41:52.344Z,10.50
2022-12-02T05:43:54.270Z,10.50
2022-12-02T05:45:59.073Z,10.50
2022-12-02T05:48:00.671Z,10.50
2022-12-02T05:50:06.900Z,10.50
2022-12-02T05:52:34.641Z,10.50
2022-12-02T05:54:38.446Z,10.50
2022-12-02T05:56:40.277Z,10.50
2022-12-02T05:58:42.079Z,10.50
2022-12-02T06:00:43.883Z,10.50
2022-12-02T06:02:58.429Z,10.50
2022-12-02T06:05:00.361Z,10.50
2022-12-02T06:07:08.574Z,10.50
2022-12-02T06:09:11.948Z,10.50
2022-12-02T06:11:23.854Z,10.60
2022-12-02T06:13:27.201Z,10.50
2022-12-02T06:15:34.300Z,10.50
2022-12-02T06:17:35.986Z,10.50
2022-12-02T06:19:43.693Z,10.50
2022-12-02T06:21:45.320Z,10.50
2022-12-02T06:23:48.745Z,10.50
2022-12-02T06:25:52.040Z,10.50
2022-12-02T06:27:59.955Z,10.60
2022-12-02T06:30:05.084Z,10.50
2022-12-02T06:32:13.160Z,10.60
2022-12-02T06:34:17.964Z,10.50
2022-12-02T06:36:24.875Z,10.60
2022-12-02T06:38:30.642Z,10.50
2022-12-02T06:40:33.874Z,10.60
2022-12-02T06:42:37.950Z,10.50
2022-12-02T06:44:58.293Z,10.60
2022-12-02T06:47:00.368Z,10.50
2022-12-02T06:49:12.340Z,10.50
2022-12-02T06:51:18.880Z,10.50
2022-12-02T06:53:20.743Z,10.50
2022-12-02T06:55:40.871Z,10.50
2022-12-02T06:57:50.369Z,10.50
2022-12-02T06:59:52.214Z,10.50
2022-12-02T07:02:11.584Z,10.50
2022-12-02T07:04:45.869Z,10.50
2022-12-02T07:06:50.524Z,10.50
2022-12-02T07:08:52.470Z,10.50
2022-12-02T07:10:54.159Z,10.50
2022-12-02T07:12:57.473Z,10.50
2022-12-02T07:15:19.335Z,10.50
2022-12-02T07:17:31.503Z,10.50
2022-12-02T07:19:38.386Z,10.50
2022-12-02T07:21:40.045Z,10.50
2022-12-02T07:23:41.701Z,10.50
2022-12-02T07:25:54.164Z,10.50
2022-12-02T07:27:55.840Z,10.50
2022-12-02T07:29:58.003Z,10.50
2022-12-02T07:31:59.615Z,10.50
2022-12-02T07:34:01.254Z,10.50
2022-12-02T07:36:02.954Z,10.50
2022-12-02T07:38:04.709Z,10.50
2022-12-02T07:40:07.250Z,10.50
2022-12-02T07:42:09.071Z,10.50
2022-12-02T07:44:10.714Z,10.50
2022-12-02T07:46:12.463Z,10.50
2022-12-02T07:48:14.226Z,10.50
2022-12-02T07:50:16.716Z,10.50
2022-12-02T07:52:18.399Z,10.50
2022-12-02T07:54:20.077Z,10.50
2022-12-02T07:56:21.708Z,10.50
2022-12-02T07:58:37.075Z,10.50
2022-12-02T08:00:44.971Z,10.50
2022-12-02T08:02:46.913Z,10.50
2022-12-02T08:04:48.734Z,10.50
2022-12-02T08:06:50.596Z,10.50
2022-12-02T08:08:52.291Z,10.50
2022-12-02T08:10:53.980Z,10.50
2022-12-02T08:12:55.752Z,10.50
2022-12-02T08:14:57.488Z,10.40
2022-12-02T08:16:59.292Z,10.40
2022-12-02T08:19:01.235Z,10.50
2022-12-02T08:21:08.294Z,10.40
2022-12-02T08:23:10.713Z,10.40
2022-12-02T08:25:12.399Z,10.40
2022-12-02T08:27:14.120Z,10.40
2022-12-02T08:29:15.916Z,10.40
2022-12-02T08:31:17.913Z,10.40
2022-12-02T08:33:19.649Z,10.40
2022-12-02T08:35:21.352Z,10.40
2022-12-02T08:37:23.110Z,10.40
2022-12-02T08:39:24.833Z,10.40
2022-12-02T08:41:27.871Z,10.40
2022-12-02T08:43:29.863Z,10.40
2022-12-02T08:45:31.637Z,10.40
2022-12-02T08:47:33.318Z,10.40
2022-12-02T08:49:35.047Z,10.50
2022-12-02T08:51:36.810Z,10.40
2022-12-02T08:53:38.782Z,10.50
2022-12-02T08:55:40.521Z,10.50
2022-12-02T08:57:42.258Z,10.40
2022-12-02T08:59:44.154Z,10.50
2022-12-02T09:01:46.153Z,10.50
2022-12-02T09:03:48.331Z,10.40
2022-12-02T09:05:50.249Z,10.50
2022-12-02T09:07:52.173Z,10.50
2022-12-02T09:09:53.949Z,10.40
2022-12-02T09:11:55.712Z,10.50
2022-12-02T09:13:57.475Z,10.40
2022-12-02T09:16:00.134Z,10.40
2022-12-02T09:18:01.986Z,10.40
2022-12-02T09:20:05.178Z,10.40
2022-12-02T09:22:07.224Z,10.40
2022-12-02T09:24:09.009Z,10.40
2022-12-02T09:26:10.866Z,10.40
2022-12-02T09:28:12.678Z,10.40
2022-12-02T09:30:14.672Z,10.40
2022-12-02T09:32:16.388Z,10.40
2022-12-02T09:34:20.028Z,10.40
2022-12-02T09:36:23.583Z,10.40
2022-12-02T09:38:25.502Z,10.40
2022-12-02T09:40:27.281Z,10.40
2022-12-02T09:42:29.085Z,10.40
2022-12-02T09:44:31.021Z,10.40
2022-12-02T09:46:32.877Z,10.40
2022-12-02T09:48:35.170Z,10.40
2022-12-02T09:50:38.025Z,10.40
2022-12-02T09:52:39.782Z,10.40
2022-12-02T09:54:42.718Z,10.50
2022-12-02T09:56:44.476Z,10.40
2022-12-02T09:58:47.677Z,10.40
2022-12-02T10:00:51.654Z,10.40
2022-12-02T10:02:54.378Z,10.50
2022-12-02T10:04:57.094Z,10.40
2022-12-02T10:06:58.811Z,10.40
2022-12-02T10:09:01.565Z,10.40
2022-12-02T10:11:05.212Z,10.40
2022-12-02T10:13:08.216Z,10.40
2022-12-02T10:15:13.710Z,10.40
2022-12-02T10:17:20.172Z,10.40
2022-12-02T10:19:21.948Z,10.40
2022-12-02T10:21:23.684Z,10.50
2022-12-02T10:23:26.509Z,10.40
2022-12-02T10:25:31.890Z,10.40
2022-12-02T10:27:33.629Z,10.40
2022-12-02T10:29:35.503Z,10.40
2022-12-02T10:31:37.275Z,10.40
2022-12-02T10:33:40.720Z,10.40
2022-12-02T10:35:43.723Z,10.40
2022-12-02T10:37:45.519Z,10.40
2022-12-02T10:39:47.368Z,10.40
2022-12-02T10:41:49.851Z,10.40
2022-12-02T10:43:51.510Z,10.30
2022-12-02T10:45:57.016Z,10.40
2022-12-02T10:48:18.693Z,10.40
2022-12-02T10:50:21.890Z,10.30
2022-12-02T10:52:29.391Z,10.30
2022-12-02T10:54:34.526Z,10.40
2022-12-02T10:56:41.215Z,10.30
2022-12-02T10:58:43.041Z,10.40
2022-12-02T11:00:44.879Z,10.30
2022-12-02T11:03:00.374Z,10.40
2022-12-02T11:05:19.437Z,10.30
2022-12-02T11:07:22.736Z,10.40
2022-12-02T11:09:41.717Z,10.40
2022-12-02T11:11:43.571Z,10.30
2022-12-02T11:13:54.221Z,10.30
2022-12-02T11:15:56.121Z,10.30
2022-12-02T11:17:57.940Z,10.30
2022-12-02T11:20:18.150Z,10.30
2022-12-02T11:22:38.488Z,10.20
2022-12-02T11:24:42.764Z,10.20
2022-12-02T11:26:59.876Z,10.20
2022-12-02T11:29:06.051Z,10.20
2022-12-02T11:31:10.985Z,10.20
2022-12-02T11:33:13.894Z,10.10
2022-12-02T11:35:18.734Z,10.10
2022-12-02T11:37:30.279Z,10.10
2022-12-02T11:39:41.535Z,10.10
2022-12-02T11:41:49.367Z,10.10
2022-12-02T11:43:53.993Z,10.10
2022-12-02T11:45:57.512Z,10.10
2022-12-02T11:47:59.915Z,10.10
2022-12-02T11:50:10.769Z,10.10
2022-12-02T11:52:16.763Z,10.10
2022-12-02T11:54:19.143Z,10.10
2022-12-02T11:56:21.205Z,10.10
2022-12-02T11:58:30.131Z,10.10
2022-12-02T12:00:37.848Z,10.10
2022-12-02T12:02:40.365Z,10.10
2022-12-02T12:04:42.429Z,10.10
2022-12-02T12:06:53.455Z,10.10
2022-12-02T12:08:56.836Z,10.10
2022-12-02T12:11:17.033Z,10.10
2022-12-02T12:13:23.778Z,10.20
2022-12-02T12:16:00.824Z,10.20
2022-12-02T12:18:02.598Z,10.10
2022-12-02T12:20:24.399Z,10.20
2022-12-02T12:22:27.317Z,10.10
2022-12-02T12:24:29.542Z,10.10
2022-12-02T12:26:32.496Z,10.10
2022-12-02T12:28:35.719Z,10.10
2022-12-02T12:30:37.522Z,10.20
2022-12-02T12:32:39.249Z,10.10
2022-12-02T12:34:41.189Z,10.20
2022-12-02T12:36:43.740Z,10.10
2022-12-02T12:38:45.454Z,10.10
2022-12-02T12:40:47.231Z,10.10
2022-12-02T12:42:48.931Z,10.10
2022-12-02T12:44:52.543Z,10.10
2022-12-02T12:46:54.418Z,10.00
2022-12-02T12:48:56.500Z,10.00
2022-12-02T12:50:58.344Z,10.00
2022-12-02T12:53:00.163Z,10.00
2022-12-02T12:55:03.743Z,10.00
2022-12-02T12:57:05.567Z,10.00
2022-12-02T12:59:07.373Z,10.00
2022-12-02T13:01:09.291Z,10.00
2022-12-02T13:03:11.181Z,10.00
2022-12-02T13:05:13.038Z,10.00
2022-12-02T13:07:14.931Z,10.00
2022-12-02T13:09:17.129Z,10.00
2022-12-02T13:11:18.845Z,10.00
2022-12-02T13:13:20.709Z,10.00
2022-12-02T13:15:22.604Z,10.00
2022-12-02T13:17:24.398Z,10.00
2022-12-02T13:19:26.179Z,9.90
2022-12-02T13:21:27.990Z,9.90
2022-12-02T13:23:29.793Z,9.90
2022-12-02T13:25:31.528Z,9.90
2022-12-02T13:27:33.934Z,9.90
2022-12-02T13:29:35.737Z,9.90
2022-12-02T13:31:37.578Z,9.90
2022-12-02T13:33:39.390Z,9.90
2022-12-02T13:35:41.133Z,9.90
2022-12-02T13:37:43.166Z,9.90
2022-12-02T13:39:45.151Z,9.90
2022-12-02T13:41:46.932Z,9.90
2022-12-02T13:43:48.776Z,9.90
2022-12-02T13:45:50.717Z,9.90
2022-12-02T13:47:53.022Z,9.90
2022-12-02T13:49:54.891Z,9.90
2022-12-02T13:51:57.297Z,9.90
2022-12-02T13:53:59.754Z,9.90
2022-12-02T13:56:01.644Z,9.90
2022-12-02T13:58:03.429Z,9.90
2022-12-02T14:00:05.646Z,9.90
2022-12-02T14:02:14.619Z,9.90
2022-12-02T14:04:16.440Z,9.90
2022-12-02T14:06:18.900Z,9.90
2022-12-02T14:08:20.867Z,9.90
2022-12-02T14:10:22.779Z,9.90
2022-12-02T14:12:24.622Z,9.90
2022-12-02T14:14:26.376Z,9.90
2022-12-02T14:16:28.213Z,9.90
2022-12-02T14:18:30.074Z,9.90
2022-12-02T14:20:31.930Z,9.90
2022-12-02T14:22:33.745Z,9.90
2022-12-02T14:24:35.525Z,9.90
2022-12-02T14:26:37.267Z,9.90
2022-12-02T14:28:39.020Z,9.90
2022-12-02T14:30:40.678Z,9.90
2022-12-02T14:32:42.432Z,9.90
2022-12-02T14:34:44.191Z,9.90
2022-12-02T14:36:45.884Z,9.90
2022-12-02T14:38:47.691Z,9.90
2022-12-02T14:40:49.375Z,9.80
2022-12-02T14:42:51.255Z,9.80
2022-12-02T14:44:53.133Z,9.80
2022-12-02T14:46:55.119Z,9.80
2022-12-02T14:49:23.377Z,9.80
2022-12-02T14:51:18.959Z,9.80
2022-12-02T14:53:21.216Z,9.80
2022-12-02T14:55:23.300Z,9.80
2022-12-02T14:57:25.091Z,9.80
2022-12-02T14:59:26.930Z,9.80
2022-12-02T15:01:28.818Z,9.80
2022-12-02T15:03:30.718Z,9.80
2022-12-02T15:05:32.497Z,9.80
2022-12-02T15:07:34.343Z,9.80
2022-12-02T15:09:36.312Z,9.80
2022-12-02T15:11:38.172Z,9.80
2022-12-02T15:13:39.904Z,9.80
2022-12-02T15:15:41.759Z,9.80
2022-12-02T15:17:43.619Z,9.80
2022-12-02T15:19:45.636Z,9.80
2022-12-02T15:21:47.467Z,9.80
2022-12-02T15:23:50.462Z,9.80
2022-12-02T15:25:52.303Z,9.70
2022-12-02T15:27:54.127Z,9.70
2022-12-02T15:29:55.961Z,9.70
2022-12-02T15:31:57.843Z,9.80
2022-12-02T15:33:59.648Z,9.70
2022-12-02T15:36:01.390Z,9.70
2022-12-02T15:38:03.113Z,9.70
2022-12-02T15:40:05.251Z,9.70
2022-12-02T15:42:07.020Z,9.70
2022-12-02T15:44:08.798Z,9.70
2022-12-02T15:46:10.596Z,9.70
2022-12-02T15:48:12.347Z,9.70
2022-12-02T15:50:14.129Z,9.70
2022-12-02T15:52:15.861Z,9.70
2022-12-02T15:54:17.581Z,9.70
2022-12-02T15:56:19.328Z,9.70
2022-12-02T15:58:21.049Z,9.70
2022-12-02T16:00:22.894Z,9.70
2022-12-02T16:02:24.920Z,9.70
2022-12-02T16:04:26.812Z,9.70
2022-12-02T16:06:28.581Z,9.70
2022-12-02T16:08:30.294Z,9.60
2022-12-02T16:10:32.117Z,9.60
2022-12-02T16:12:33.848Z,9.60
2022-12-02T16:14:35.585Z,9.70
2022-12-02T16:16:37.397Z,9.70
2022-12-02T16:18:39.171Z,9.70
2022-12-02T16:20:40.963Z,9.70
2022-12-02T16:22:42.716Z,9.70
2022-12-02T16:24:44.411Z,9.70
2022-12-02T16:26:49.527Z,9.60
2022-12-02T16:28:53.962Z,9.60
2022-12-02T16:30:55.716Z,9.60
2022-12-02T16:32:57.616Z,9.60
2022-12-02T16:34:59.356Z,9.60
2022-12-02T16:37:01.096Z,9.60
2022-12-02T16:39:03.093Z,9.60
2022-12-02T16:41:05.049Z,9.60
2022-12-02T16:43:06.952Z,9.60
2022-12-02T16:45:08.911Z,9.60
2022-12-02T16:47:10.709Z,9.60
2022-12-02T16:49:12.647Z,9.60
2022-12-02T16:51:14.304Z,9.60
2022-12-02T16:53:16.048Z,9.60
2022-12-02T16:55:17.853Z,9.60
2022-12-02T16:57:19.578Z,9.60
2022-12-02T16:59:22.301Z,9.60
2022-12-02T17:01:24.182Z,9.60
2022-12-02T17:03:25.960Z,9.60
2022-12-02T17:05:27.704Z,9.60
2022-12-02T17:07:29.588Z,9.60
2022-12-02T17:09:31.427Z,9.60
2022-12-02T17:11:33.257Z,9.60
2022-12-02T17:13:34.996Z,9.60
2022-12-02T17:15:37.004Z,9.60
2022-12-02T17:17:47.012Z,9.60
2022-12-02T17:19:49.069Z,9.60
2022-12-02T17:21:50.817Z,9.60
2022-12-02T17:23:52.645Z,9.50
2022-12-02T17:25:54.442Z,9.60
2022-12-02T17:27:56.224Z,9.60
2022-12-02T17:29:58.036Z,9.50
2022-12-02T17:31:59.864Z,9.50
2022-12-02T17:34:01.687Z,9.50
2022-12-02T17:36:03.570Z,9.50
2022-12-02T17:38:05.446Z,9.50
2022-12-02T17:40:07.713Z,9.50
2022-12-02T17:42:09.480Z,9.50
2022-12-02T17:44:16.319Z,9.50
2022-12-02T17:46:18.801Z,9.50
2022-12-02T17:48:20.594Z,9.50
2022-12-02T17:50:22.437Z,9.50
2022-12-02T17:52:24.301Z,9.50
2022-12-02T17:54:26.047Z,9.50
2022-12-02T17:56:27.790Z,9.50
2022-12-02T17:58:29.532Z,9.50
2022-12-02T18:00:31.327Z,9.40
2022-12-02T18:02:33.295Z,9.40
2022-12-02T18:04:35.095Z,9.40
2022-12-02T18:06:37.458Z,9.40
2022-12-02T18:08:39.193Z,9.40
2022-12-02T18:10:41.078Z,9.40
2022-12-02T18:12:42.758Z,9.40
2022-12-02T18:14:44.419Z,9.40
2022-12-02T18:16:46.172Z,9.40
2022-12-02T18:18:48.039Z,9.40
2022-12-02T18:20:49.713Z,9.40
2022-12-02T18:22:51.343Z,9.40
2022-12-02T18:24:53.338Z,9.40
2022-12-02T18:26:55.249Z,9.40
2022-12-02T18:28:56.936Z,9.40
2022-12-02T18:30:58.906Z,9.40
2022-12-02T18:33:00.765Z,9.40
2022-12-02T18:35:02.498Z,9.40
2022-12-02T18:37:04.239Z,9.40
2022-12-02T18:39:05.957Z,9.40
2022-12-02T18:41:07.704Z,9.40
2022-12-02T18:43:09.447Z,9.30
2022-12-02T18:45:11.309Z,9.30
2022-12-02T18:47:13.119Z,9.30
2022-12-02T18:49:14.782Z,9.30
2022-12-02T18:51:16.494Z,9.30
2022-12-02T18:53:18.259Z,9.30
2022-12-02T18:55:20.048Z,9.30
2022-12-02T18:57:23.738Z,9.30
2022-12-02T18:59:25.482Z,9.30
2022-12-02T19:01:33.657Z,9.20
2022-12-02T19:03:36.892Z,9.20
2022-12-02T19:05:38.728Z,9.20
2022-12-02T19:07:40.603Z,9.20
2022-12-02T19:09:42.598Z,9.20
2022-12-02T19:14:02.022Z,9.20
2022-12-02T19:16:07.979Z,9.20
2022-12-02T19:18:10.898Z,9.20
2022-12-02T19:20:12.869Z,9.20
2022-12-02T19:22:14.702Z,9.20
2022-12-02T19:24:16.718Z,9.20
2022-12-02T19:26:18.671Z,9.20
2022-12-02T19:28:20.793Z,9.20
2022-12-02T19:30:23.627Z,9.30
2022-12-02T19:32:25.405Z,9.20
2022-12-02T19:34:27.215Z,9.10
2022-12-02T19:36:29.044Z,9.20
2022-12-02T19:38:30.902Z,9.10
2022-12-02T19:40:38.056Z,9.20
2022-12-02T19:42:42.690Z,9.20
2022-12-02T19:44:44.467Z,9.10
2022-12-02T19:46:46.233Z,9.20
2022-12-02T19:48:48.506Z,9.10
2022-12-02T19:50:51.224Z,9.10
2022-12-02T19:52:52.984Z,9.20
2022-12-02T19:54:54.972Z,9.10
2022-12-02T19:56:57.085Z,9.10
2022-12-02T19:58:58.946Z,9.10
2022-12-02T20:01:00.761Z,9.10
2022-12-02T20:03:02.990Z,9.10
2022-12-02T20:05:05.550Z,9.10
2022-12-02T20:07:07.273Z,9.10
2022-12-02T20:09:08.982Z,9.10
2022-12-02T20:11:10.692Z,9.10
2022-12-02T20:13:12.482Z,9.10
2022-12-02T20:15:15.103Z,9.10
2022-12-02T20:17:16.957Z,9.10
2022-12-02T20:19:18.652Z,9.10
2022-12-02T20:21:20.537Z,9.10
2022-12-02T20:23:22.415Z,9.10
2022-12-02T20:25:24.617Z,9.10
2022-12-02T20:27:26.365Z,9.10
2022-12-02T20:29:28.114Z,9.10
2022-12-02T20:31:30.057Z,9.10
2022-12-02T20:33:31.849Z,9.10
2022-12-02T20:35:33.589Z,9.10
2022-12-02T20:37:35.575Z,9.10
2022-12-02T20:39:37.393Z,9.10
2022-12-02T20:41:39.503Z,9.20
2022-12-02T20:43:41.341Z,9.10
2022-12-02T20:46:27.280Z,9.10
2022-12-02T20:48:29.629Z,9.10
2022-12-02T20:50:31.381Z,9.10
2022-12-02T20:52:33.152Z,9.20
2022-12-02T20:54:34.870Z,9.10
2022-12-02T20:56:36.718Z,9.10
2022-12-02T20:58:38.459Z,9.10
2022-12-02T21:00:40.350Z,9.00
2022-12-02T21:02:42.412Z,9.00
2022-12-02T21:04:44.524Z,9.10
2022-12-02T21:06:46.319Z,9.00
2022-12-02T21:08:50.183Z,9.00
2022-12-02T21:10:51.963Z,9.00
2022-12-02T21:12:58.818Z,9.00
2022-12-02T21:15:07.866Z,9.00
2022-12-02T21:17:09.675Z,9.00
2022-12-02T21:19:12.426Z,9.10
2022-12-02T21:21:14.308Z,9.00
2022-12-02T21:23:16.051Z,9.10
2022-12-02T21:25:17.797Z,9.10
2022-12-02T21:27:19.558Z,9.10
2022-12-02T21:29:21.319Z,9.10
2022-12-02T21:31:23.181Z,9.10
2022-12-02T21:33:24.866Z,9.00
2022-12-02T21:35:26.687Z,9.10
2022-12-02T21:37:28.350Z,9.10
2022-12-02T21:39:30.049Z,9.10
2022-12-02T21:41:31.808Z,9.10
2022-12-02T21:43:33.767Z,9.10
2022-12-02T21:45:35.561Z,9.10
2022-12-02T21:47:37.386Z,9.10
2022-12-02T21:49:40.661Z,9.10
2022-12-02T21:51:44.110Z,9.10
2022-12-02T21:53:45.913Z,9.10
2022-12-02T21:55:47.720Z,9.10
2022-12-02T21:57:49.517Z,9.10
2022-12-02T21:59:51.328Z,9.00
2022-12-02T22:01:53.099Z,9.00
2022-12-02T22:03:54.997Z,9.00
2022-12-02T22:05:56.671Z,9.00
2022-12-02T22:07:58.431Z,9.00
2022-12-02T22:10:00.247Z,9.00
2022-12-02T22:12:04.260Z,9.00
2022-12-02T22:14:06.467Z,9.00
2022-12-02T22:16:08.284Z,9.00
2022-12-02T22:18:09.970Z,9.00
2022-12-02T22:20:12.262Z,9.00
2022-12-02T22:22:13.975Z,9.00
2022-12-02T22:24:15.624Z,9.00
2022-12-02T22:26:20.172Z,8.90
2022-12-02T22:28:22.018Z,9.00
2022-12-02T22:30:23.739Z,8.90
2022-12-02T22:32:25.399Z,8.90
2022-12-02T22:34:27.229Z,8.90
2022-12-02T22:36:28.886Z,8.90
2022-12-02T22:38:30.555Z,9.00
2022-12-02T22:40:32.291Z,8.90
2022-12-02T22:42:34.044Z,8.90
2022-12-02T22:44:35.752Z,8.90
2022-12-02T22:46:39.635Z,8.90
2022-12-02T22:48:41.316Z,8.90
2022-12-02T22:50:43.023Z,8.90
2022-12-02T22:52:44.709Z,8.90
2022-12-02T22:54:46.398Z,9.00
2022-12-02T22:56:48.134Z,9.00
2022-12-02T22:58:49.851Z,9.00
2022-12-02T23:00:51.605Z,8.90
2022-12-02T23:02:53.370Z,9.00
2022-12-02T23:04:55.354Z,9.00
2022-12-02T23:06:57.239Z,9.00
2022-12-02T23:08:58.992Z,9.00
2022-12-02T23:11:00.683Z,9.00
2022-12-02T23:13:04.312Z,8.90
2022-12-02T23:15:34.469Z,9.00
2022-12-02T23:17:28.068Z,9.00
2022-12-02T23:19:34.954Z,8.90
2022-12-02T23:21:37.571Z,8.90
2022-12-02T23:23:39.546Z,8.90
2022-12-02T23:25:41.292Z,8.90
2022-12-02T23:27:43.978Z,9.00
2022-12-02T23:29:45.743Z,8.80
2022-12-02T23:31:47.408Z,8.90
2022-12-02T23:33:49.169Z,8.80
2022-12-02T23:35:50.886Z,8.90
2022-12-02T23:37:52.608Z,8.80
2022-12-02T23:39:54.290Z,8.90
2022-12-02T23:41:55.989Z,8.90
2022-12-02T23:43:57.688Z,8.90
2022-12-02T23:45:59.683Z,8.90
2022-12-02T23:48:01.407Z,8.90
2022-12-02T23:50:03.621Z,8.90
2022-12-02T23:52:05.269Z,8.90
2022-12-02T23:54:06.981Z,8.90
2022-12-02T23:56:08.646Z,8.90
2022-12-02T23:58:10.506Z,8.90
